aviador You're here:

YCAR Decoded Metar

CARNARVON in AUSTRALIA
Report Time2018-07-22 16:00:00
UTC Time2018-07-22 16:31:19
Flight Rules vfr VFR
Wind190° at 11 kt
W.Decomp.*RWY 18: 10.8 kt HW 1.9 kt RCW
RWY 22: 9.5 kt HW 5.5 kt LCW
W.Rank190° ranks 2
Current wind is below 190° avg. (14.3)
Visibility9999 m
Phenomena:N/A
Clouds:Scattered 029 Hf
Expected CloudBase > 1,200 ft AGL from Temp-Dew spread
CeilingNone
Temp19°C (ISA +4)
Dew Point16°C (83% RH)
AAT17.0°C
QNH1016 hPa
Density Alt640 ft
Elevation26 ft
Report Wrong Elevation
Raw Report
METAR YCAR 221600Z AUTO 19011KT 9999 // SCT029 19/16 Q1016=

Extra information for YCAR:More info

Metar Taf Metar & Taf Last 4 Metars F.Rules Stats Wind Profile Meteogram Temp Stats Airport Information Weather charts Add Link Nearby VenuesMetar ALERT Operation Metar Decoded Social comments